createdAt,value
2023-09-28T00:01:05.143Z,13.87
2023-09-28T00:06:08.191Z,13.43
2023-09-28T00:11:11.197Z,14.23
2023-09-28T00:16:14.241Z,12.77
2023-09-28T00:21:17.360Z,13.53
2023-09-28T00:26:20.976Z,13.13
2023-09-28T00:31:24.069Z,14.30
2023-09-28T00:36:27.403Z,12.93
2023-09-28T00:41:30.476Z,12.87
2023-09-28T00:46:34.697Z,13.37
2023-09-28T00:51:40.687Z,12.93
2023-09-28T00:56:43.581Z,13.30
2023-09-28T01:01:48.584Z,12.87
2023-09-28T01:06:52.495Z,13.77
2023-09-28T01:11:56.897Z,15.20
2023-09-28T01:16:59.976Z,14.20
2023-09-28T01:22:03.996Z,14.10
2023-09-28T01:27:08.125Z,15.73
2023-09-28T01:32:11.256Z,13.90
2023-09-28T01:37:14.578Z,13.77
2023-09-28T01:42:17.578Z,14.63
2023-09-28T01:47:20.460Z,15.43
2023-09-28T01:52:23.484Z,14.63
2023-09-28T01:57:26.641Z,14.33
2023-09-28T02:02:30.618Z,13.67
2023-09-28T02:07:35.620Z,13.17
2023-09-28T02:12:45.129Z,14.87
2023-09-28T02:17:48.342Z,13.30
2023-09-28T02:22:54.323Z,13.60
2023-09-28T02:27:58.007Z,11.43
2023-09-28T02:33:01.875Z,10.70
2023-09-28T02:38:04.849Z,11.83
2023-09-28T02:43:08.194Z,13.07
2023-09-28T02:48:12.228Z,12.90
2023-09-28T02:53:15.793Z,12.17
2023-09-28T02:58:18.689Z,13.37
2023-09-28T03:03:21.774Z,12.53
2023-09-28T03:08:25.419Z,13.20
2023-09-28T03:13:28.692Z,12.40
2023-09-28T03:18:31.900Z,12.33
2023-09-28T03:23:35.030Z,12.93
2023-09-28T03:28:38.571Z,13.63
2023-09-28T03:33:42.369Z,11.43
2023-09-28T03:38:45.360Z,11.23
2023-09-28T03:43:49.779Z,10.57
2023-09-28T03:48:52.697Z,12.23
2023-09-28T03:53:56.699Z,11.83
2023-09-28T03:58:59.710Z,9.53
2023-09-28T04:04:02.809Z,11.03
2023-09-28T04:09:08.821Z,12.23
2023-09-28T04:14:12.086Z,11.40
2023-09-28T04:19:15.299Z,12.43
2023-09-28T04:24:19.024Z,12.33
2023-09-28T04:29:22.233Z,12.67
2023-09-28T04:34:25.677Z,13.40
2023-09-28T04:39:28.780Z,13.07
2023-09-28T04:44:32.417Z,13.87
2023-09-28T04:49:35.720Z,15.27
2023-09-28T04:54:39.424Z,14.00
2023-09-28T04:59:43.166Z,12.63
2023-09-28T05:04:46.542Z,13.53
2023-09-28T05:09:49.705Z,12.80
2023-09-28T05:14:53.719Z,11.43
2023-09-28T05:19:56.841Z,11.10
2023-09-28T05:24:59.940Z,13.37
2023-09-28T05:30:04.953Z,12.37
2023-09-28T05:35:08.441Z,12.93
2023-09-28T05:40:11.891Z,14.27
2023-09-28T05:45:15.056Z,15.23
2023-09-28T05:50:19.991Z,13.80
2023-09-28T05:55:24.161Z,15.93
2023-09-28T06:00:27.653Z,16.17
2023-09-28T06:05:30.779Z,14.83
2023-09-28T06:10:34.955Z,15.33
2023-09-28T06:15:38.037Z,16.27
2023-09-28T06:20:42.851Z,17.60
2023-09-28T06:25:46.316Z,16.63
2023-09-28T06:30:49.207Z,18.13
2023-09-28T06:35:52.682Z,16.97
2023-09-28T06:40:56.912Z,16.23
2023-09-28T06:46:00.037Z,16.73
2023-09-28T06:51:03.206Z,16.53
2023-09-28T06:56:14.355Z,15.43
2023-09-28T07:01:17.940Z,15.70
2023-09-28T07:06:23.010Z,16.08
2023-09-28T07:11:27.613Z,15.93
2023-09-28T07:16:31.305Z,15.48
2023-09-28T07:21:34.407Z,13.63
2023-09-28T07:26:37.406Z,15.70
2023-09-28T07:31:40.491Z,14.15
2023-09-28T07:36:43.506Z,13.68
2023-09-28T07:41:46.659Z,13.75
2023-09-28T07:46:49.926Z,11.90
2023-09-28T07:51:56.423Z,12.88
2023-09-28T07:56:59.399Z,12.82
2023-09-28T08:02:03.865Z,12.10
2023-09-28T08:07:06.697Z,11.00
2023-09-28T08:12:30.866Z,11.85
2023-09-28T08:17:44.829Z,11.45
2023-09-28T08:22:49.355Z,11.60
2023-09-28T08:27:52.693Z,10.32
2023-09-28T08:32:56.322Z,9.57
2023-09-28T08:37:59.671Z,10.15
2023-09-28T08:43:06.463Z,9.45
2023-09-28T08:48:13.387Z,9.13
2023-09-28T08:53:18.984Z,8.52
2023-09-28T08:58:22.545Z,8.70
2023-09-28T09:03:27.166Z,9.30
2023-09-28T09:08:34.829Z,8.55
2023-09-28T09:13:54.938Z,7.80
2023-09-28T09:19:00.758Z,6.65
2023-09-28T09:24:05.985Z,7.22
2023-09-28T09:29:10.826Z,6.88
2023-09-28T09:34:16.230Z,7.32
2023-09-28T09:39:24.953Z,6.72
2023-09-28T09:44:32.002Z,7.35
2023-09-28T09:49:35.168Z,7.03
2023-09-28T09:54:39.943Z,6.72
2023-09-28T09:59:49.420Z,7.60
2023-09-28T10:04:56.627Z,7.25
2023-09-28T10:10:00.667Z,7.03
2023-09-28T10:15:04.408Z,6.85
2023-09-28T10:20:08.770Z,7.50
2023-09-28T10:25:17.732Z,6.55
2023-09-28T10:30:23.590Z,6.30
2023-09-28T10:35:32.888Z,5.70
2023-09-28T10:40:48.328Z,6.28
2023-09-28T10:45:54.175Z,6.43
2023-09-28T10:50:57.874Z,6.15
2023-09-28T10:56:00.978Z,5.72
2023-09-28T11:01:08.433Z,5.53
2023-09-28T11:06:12.018Z,6.00
2023-09-28T11:11:17.907Z,6.18
2023-09-28T11:16:21.300Z,5.15
2023-09-28T11:21:25.272Z,5.57
2023-09-28T11:26:30.470Z,5.13
2023-09-28T11:31:37.471Z,6.13
2023-09-28T11:36:43.318Z,5.75
2023-09-28T11:42:00.909Z,5.25
2023-09-28T11:47:07.488Z,5.70
2023-09-28T11:52:12.114Z,4.65
2023-09-28T11:57:18.460Z,4.07
2023-09-28T12:02:22.782Z,4.68
2023-09-28T12:07:26.440Z,4.28
2023-09-28T12:12:29.744Z,4.28
2023-09-28T12:17:33.088Z,4.78
2023-09-28T12:22:37.379Z,5.22
2023-09-28T12:27:41.855Z,4.57
2023-09-28T12:32:47.503Z,4.95
2023-09-28T12:37:51.398Z,4.90
2023-09-28T12:42:54.777Z,5.03
2023-09-28T12:47:58.836Z,4.90
2023-09-28T12:53:03.326Z,4.55
2023-09-28T12:58:06.760Z,4.35
2023-09-28T13:03:11.149Z,4.30
2023-09-28T13:08:15.300Z,4.10
2023-09-28T13:13:18.432Z,4.82
2023-09-28T13:18:22.848Z,3.92
2023-09-28T13:23:26.977Z,4.93
2023-09-28T13:28:30.133Z,4.30
2023-09-28T13:33:39.415Z,4.35
2023-09-28T13:38:44.007Z,4.85
2023-09-28T13:43:47.483Z,4.60
2023-09-28T13:48:51.091Z,4.35
2023-09-28T13:53:54.773Z,3.38
2023-09-28T13:58:58.188Z,3.30
2023-09-28T14:04:01.679Z,3.10
2023-09-28T14:09:05.578Z,3.58
2023-09-28T14:14:10.413Z,3.20
2023-09-28T14:19:14.784Z,3.28
2023-09-28T14:24:18.188Z,3.03
2023-09-28T14:29:21.429Z,3.30
2023-09-28T14:34:24.513Z,3.30
2023-09-28T14:39:28.816Z,3.33
2023-09-28T14:44:32.586Z,3.03
2023-09-28T14:49:35.713Z,3.38
2023-09-28T14:54:38.756Z,3.45
2023-09-28T14:59:41.854Z,3.85
2023-09-28T15:04:45.096Z,3.50
2023-09-28T15:09:49.864Z,3.55
2023-09-28T15:14:53.076Z,2.95
2023-09-28T15:19:56.185Z,3.40
2023-09-28T15:24:59.721Z,3.15
2023-09-28T15:30:06.534Z,3.90
2023-09-28T15:35:11.269Z,3.67
2023-09-28T15:40:14.826Z,3.38
2023-09-28T15:45:18.616Z,3.03
2023-09-28T15:50:22.747Z,3.30
2023-09-28T15:55:26.500Z,3.00
2023-09-28T16:00:37.878Z,3.08
2023-09-28T16:05:42.091Z,3.55
2023-09-28T16:10:47.371Z,3.72
2023-09-28T16:15:50.683Z,3.70
2023-09-28T16:20:53.884Z,3.45
2023-09-28T16:25:57.227Z,3.58
2023-09-28T16:31:00.672Z,3.15
2023-09-28T16:36:04.047Z,4.10
2023-09-28T16:41:07.346Z,3.75
2023-09-28T16:46:10.850Z,3.90
2023-09-28T16:51:14.449Z,4.82
2023-09-28T16:56:18.316Z,6.80
2023-09-28T17:01:21.644Z,8.35
2023-09-28T17:06:24.967Z,11.45
2023-09-28T17:11:29.201Z,7.15
2023-09-28T17:16:32.901Z,10.23
2023-09-28T17:21:37.232Z,19.05
2023-09-28T17:26:40.862Z,11.40
2023-09-28T17:31:44.192Z,9.45
2023-09-28T17:36:50.359Z,9.38
2023-09-28T17:41:53.641Z,8.05
2023-09-28T17:46:57.126Z,9.63
2023-09-28T17:52:00.898Z,8.57
2023-09-28T17:57:04.431Z,10.05
2023-09-28T18:02:10.054Z,10.63
2023-09-28T18:07:13.993Z,8.70
2023-09-28T18:12:17.831Z,7.55
2023-09-28T18:17:21.559Z,7.85
2023-09-28T18:22:25.592Z,7.85
2023-09-28T18:27:30.315Z,9.68
2023-09-28T18:32:34.738Z,9.27
2023-09-28T18:37:39.991Z,8.18
2023-09-28T18:49:05.971Z,6.15
2023-09-28T18:54:10.117Z,8.40
2023-09-28T18:59:15.310Z,7.82
2023-09-28T19:04:19.112Z,7.68
2023-09-28T19:09:23.271Z,7.70
2023-09-28T19:14:27.385Z,8.88
2023-09-28T19:19:31.515Z,9.02
2023-09-28T19:24:39.277Z,9.13
2023-09-28T19:29:44.014Z,9.10
2023-09-28T19:34:47.807Z,10.83
2023-09-28T19:39:51.829Z,10.03
2023-09-28T19:44:55.446Z,10.50
2023-09-28T19:49:59.012Z,10.40
2023-09-28T19:55:05.017Z,10.23
2023-09-28T20:00:11.735Z,9.77
2023-09-28T20:05:17.207Z,9.97
2023-09-28T20:10:20.610Z,8.53
2023-09-28T20:15:24.013Z,11.63
2023-09-28T20:20:27.735Z,10.43
2023-09-28T20:25:30.755Z,8.70
2023-09-28T20:30:34.149Z,8.73
2023-09-28T20:35:37.827Z,8.80
2023-09-28T20:40:41.369Z,9.53
2023-09-28T20:45:45.131Z,9.30
2023-09-28T20:50:48.639Z,9.80
2023-09-28T20:55:51.987Z,9.30
2023-09-28T21:00:55.767Z,9.73
2023-09-28T21:05:59.266Z,13.50
2023-09-28T21:11:02.938Z,9.87
2023-09-28T21:16:07.239Z,10.07
2023-09-28T21:21:10.779Z,9.27
2023-09-28T21:26:14.023Z,9.03
2023-09-28T21:31:17.651Z,10.00
2023-09-28T21:36:21.021Z,9.10
2023-09-28T21:41:24.057Z,10.33
2023-09-28T21:46:28.248Z,11.07
2023-09-28T21:51:31.198Z,10.27
2023-09-28T21:56:34.520Z,11.10
2023-09-28T22:01:39.888Z,8.90
2023-09-28T22:06:43.530Z,9.60
2023-09-28T22:11:46.590Z,9.23
2023-09-28T22:16:49.976Z,9.63
2023-09-28T22:21:53.010Z,8.77
2023-09-28T22:26:56.429Z,9.27
2023-09-28T22:32:00.266Z,9.43
2023-09-28T22:37:06.701Z,10.13
2023-09-28T22:42:09.979Z,10.70
2023-09-28T22:47:14.361Z,9.57
2023-09-28T22:52:18.350Z,9.70
2023-09-28T22:57:22.506Z,10.10
2023-09-28T23:02:26.094Z,8.63
2023-09-28T23:07:29.762Z,8.70
2023-09-28T23:12:33.373Z,8.87
2023-09-28T23:17:37.237Z,7.97
2023-09-28T23:22:45.526Z,8.50
2023-09-28T23:27:49.834Z,7.93
2023-09-28T23:32:53.023Z,6.90
2023-09-28T23:37:57.059Z,7.83
2023-09-28T23:43:00.070Z,8.60
2023-09-28T23:48:06.712Z,8.13
2023-09-28T23:53:10.858Z,7.67
2023-09-28T23:58:14.337Z,8.60
